Time;durP1;ratioP1;P1;durP2;ratioP2;P2;SDS_P1;SDS_P2;PMS_P1;PMS_P2;Temp;Humidity;BMP_temperature;BMP_pressure;BME280_temperature;BME280_humidity;BME280_pressure;Samples;Min_cycle;Max_cycle;Signal;HPM_P1;HPM_P2
2022/07/20 00:00:37;;;;;;;24.77;23.37;;;;;;;;;;5096578;28;20447;-68
2022/07/20 00:03:05;;;;;;;25.03;23.37;;;;;;;;;;5096600;28;20514;-68
2022/07/20 00:05:32;;;;;;;25.10;23.50;;;;;;;;;;5096493;28;20436;-68
2022/07/20 00:07:59;;;;;;;25.23;23.63;;;;;;;;;;5096524;28;20451;-68
2022/07/20 00:13:14;;;;;;;25.77;23.83;;;;;;;;;;5096222;28;20914;-68
2022/07/20 00:15:41;;;;;;;24.77;23.27;;;;;;;;;;5096190;28;20815;-68
2022/07/20 00:18:08;;;;;;;24.67;23.07;;;;;;;;;;5095971;28;20438;-68
2022/07/20 00:20:36;;;;;;;24.83;23.43;;;;;;;;;;5096200;28;20424;-68
2022/07/20 00:23:03;;;;;;;25.50;23.60;;;;;;;;;;5096447;28;20430;-68
2022/07/20 00:25:31;;;;;;;25.07;23.67;;;;;;;;;;5096124;28;20518;-68
2022/07/20 00:27:58;;;;;;;25.00;23.50;;;;;;;;;;5096004;28;20447;-68
2022/07/20 00:30:27;;;;;;;25.47;23.97;;;;;;;;;;5096202;28;20413;-68
2022/07/20 00:32:54;;;;;;;24.30;22.90;;;;;;;;;;5095940;28;20449;-68
2022/07/20 00:35:21;;;;;;;24.30;22.87;;;;;;;;;;5095948;28;20431;-68
2022/07/20 00:37:49;;;;;;;24.90;23.50;;;;;;;;;;5095856;28;20433;-68
2022/07/20 00:40:17;;;;;;;24.20;22.90;;;;;;;;;;5095534;28;20449;-69
2022/07/20 00:42:44;;;;;;;25.73;24.20;;;;;;;;;;5095461;28;20457;-68
2022/07/20 00:45:11;;;;;;;25.17;23.37;;;;;;;;;;5095400;28;20444;-67
2022/07/20 00:47:40;;;;;;;24.57;23.10;;;;;;;;;;5095536;28;20428;-67
2022/07/20 00:50:09;;;;;;;24.57;23.07;;;;;;;;;;5095334;28;20441;-68
2022/07/20 00:52:36;;;;;;;24.60;23.10;;;;;;;;;;5095356;28;20945;-68
2022/07/20 00:55:04;;;;;;;24.60;23.00;;;;;;;;;;5095609;28;20446;-67
2022/07/20 00:57:32;;;;;;;24.80;23.30;;;;;;;;;;5095579;28;20410;-68
2022/07/20 01:00:00;;;;;;;24.67;23.27;;;;;;;;;;5095328;28;20443;-68
2022/07/20 01:02:27;;;;;;;24.10;22.70;;;;;;;;;;5094993;28;20451;-68
2022/07/20 01:04:56;;;;;;;24.90;23.40;;;;;;;;;;5094693;28;20425;-68
2022/07/20 01:07:23;;;;;;;27.07;25.40;;;;;;;;;;5094661;28;20443;-68
2022/07/20 01:09:50;;;;;;;24.87;23.27;;;;;;;;;;5095509;28;20440;-68
2022/07/20 01:12:18;;;;;;;24.40;23.00;;;;;;;;;;5095236;28;20571;-68
2022/07/20 01:14:45;;;;;;;23.57;22.17;;;;;;;;;;5094796;28;20455;-68
2022/07/20 01:17:13;;;;;;;24.53;23.07;;;;;;;;;;5094967;28;20439;-68
2022/07/20 01:19:40;;;;;;;23.57;22.07;;;;;;;;;;5094947;28;20451;-68
2022/07/20 01:22:09;;;;;;;26.33;24.00;;;;;;;;;;5095045;28;20416;-68
2022/07/20 01:24:36;;;;;;;24.30;22.60;;;;;;;;;;5094976;28;20437;-68
2022/07/20 01:27:05;;;;;;;24.73;23.23;;;;;;;;;;5094781;28;20406;-68
2022/07/20 01:29:32;;;;;;;24.70;23.30;;;;;;;;;;5094766;28;20460;-68
2022/07/20 01:32:00;;;;;;;24.03;22.43;;;;;;;;;;5094858;28;20958;-68
2022/07/20 01:34:27;;;;;;;24.50;23.00;;;;;;;;;;5094850;28;20434;-68
2022/07/20 01:36:54;;;;;;;24.10;22.73;;;;;;;;;;5094866;28;20447;-68
2022/07/20 01:39:23;;;;;;;24.17;22.60;;;;;;;;;;5094180;28;20518;-69
2022/07/20 01:41:53;;;;;;;23.87;22.57;;;;;;;;;;5094754;28;20468;-68
2022/07/20 01:44:22;;;;;;;24.13;22.83;;;;;;;;;;5094629;28;20437;-68
2022/07/20 01:46:49;;;;;;;24.23;22.70;;;;;;;;;;5094586;28;20445;-68
2022/07/20 01:49:17;;;;;;;25.07;23.37;;;;;;;;;;5094314;28;20410;-68
2022/07/20 01:51:44;;;;;;;24.90;23.40;;;;;;;;;;5094129;28;21070;-68
2022/07/20 01:54:12;;;;;;;23.77;22.47;;;;;;;;;;5094115;28;20441;-69
2022/07/20 01:56:42;;;;;;;25.20;23.27;;;;;;;;;;5094068;28;20766;-68
2022/07/20 01:59:09;;;;;;;23.47;22.17;;;;;;;;;;5094745;28;20436;-68
2022/07/20 02:01:37;;;;;;;23.60;22.20;;;;;;;;;;5094284;28;20443;-68
2022/07/20 02:04:05;;;;;;;23.30;21.90;;;;;;;;;;5093988;28;20502;-68
2022/07/20 02:06:32;;;;;;;23.80;22.50;;;;;;;;;;5094131;28;20415;-68
2022/07/20 02:08:59;;;;;;;24.23;22.83;;;;;;;;;;5094266;28;20418;-68
2022/07/20 02:11:27;;;;;;;23.50;22.10;;;;;;;;;;5093750;28;20449;-68
2022/07/20 02:13:55;;;;;;;24.13;22.73;;;;;;;;;;5094063;28;20437;-70
2022/07/20 02:16:23;;;;;;;23.60;22.20;;;;;;;;;;5094266;28;20444;-68
2022/07/20 02:18:51;;;;;;;24.90;23.40;;;;;;;;;;5093599;28;20439;-68
2022/07/20 02:21:19;;;;;;;24.90;23.20;;;;;;;;;;5093969;28;20405;-68
2022/07/20 02:23:47;;;;;;;24.43;23.13;;;;;;;;;;5093710;28;20855;-68
2022/07/20 02:26:15;;;;;;;25.23;23.63;;;;;;;;;;5093525;28;20909;-68
2022/07/20 02:28:43;;;;;;;25.10;23.43;;;;;;;;;;5093872;28;20416;-68
2022/07/20 02:31:11;;;;;;;23.80;22.20;;;;;;;;;;5094110;28;20403;-67
2022/07/20 02:33:39;;;;;;;24.77;23.33;;;;;;;;;;5093462;28;20445;-68
2022/07/20 02:36:06;;;;;;;25.23;23.27;;;;;;;;;;5093672;28;20434;-68
2022/07/20 02:38:34;;;;;;;23.70;22.40;;;;;;;;;;5093372;28;20911;-68
2022/07/20 02:41:01;;;;;;;23.77;22.37;;;;;;;;;;5093331;28;20974;-68
2022/07/20 02:43:28;;;;;;;23.80;22.50;;;;;;;;;;5093511;28;20472;-68
2022/07/20 02:45:56;;;;;;;24.47;22.97;;;;;;;;;;5093222;28;20437;-68
2022/07/20 02:48:24;;;;;;;24.87;23.27;;;;;;;;;;5093224;28;20437;-68
2022/07/20 02:50:52;;;;;;;25.37;23.57;;;;;;;;;;5093249;28;20939;-69
2022/07/20 02:53:19;;;;;;;24.97;23.37;;;;;;;;;;5093245;28;20455;-68
2022/07/20 02:55:46;;;;;;;24.50;23.00;;;;;;;;;;5093091;28;20419;-68
2022/07/20 02:58:14;;;;;;;24.43;22.80;;;;;;;;;;5093385;28;20416;-68
2022/07/20 03:00:42;;;;;;;24.23;22.53;;;;;;;;;;5093142;28;20442;-68
2022/07/20 03:03:10;;;;;;;24.43;22.83;;;;;;;;;;5093171;28;20431;-68
2022/07/20 03:05:39;;;;;;;24.30;22.80;;;;;;;;;;5093230;28;20445;-68
2022/07/20 03:08:07;;;;;;;24.70;23.30;;;;;;;;;;5093115;28;20408;-68
2022/07/20 03:10:34;;;;;;;23.80;22.27;;;;;;;;;;5093172;28;20513;-68
2022/07/20 03:13:01;;;;;;;25.50;23.70;;;;;;;;;;5092974;28;20457;-68
2022/07/20 03:15:29;;;;;;;24.67;22.80;;;;;;;;;;5093175;28;20436;-68
2022/07/20 03:17:56;;;;;;;24.47;22.97;;;;;;;;;;5092626;28;20426;-68
2022/07/20 03:20:24;;;;;;;25.23;23.53;;;;;;;;;;5093406;28;20407;-68
2022/07/20 03:22:54;;;;;;;25.00;23.20;;;;;;;;;;5092695;28;20949;-68
2022/07/20 03:25:21;;;;;;;24.27;22.87;;;;;;;;;;5092752;28;20911;-68
2022/07/20 03:27:48;;;;;;;24.70;23.30;;;;;;;;;;5093203;28;20415;-68
2022/07/20 03:30:16;;;;;;;25.20;23.73;;;;;;;;;;5095720;28;20800;-68
2022/07/20 03:32:44;;;;;;;26.03;24.43;;;;;;;;;;5096826;28;20487;-69
2022/07/20 03:35:12;;;;;;;24.10;22.60;;;;;;;;;;5096917;28;20415;-68
2022/07/20 03:37:39;;;;;;;25.63;24.00;;;;;;;;;;5096832;28;20816;-68
2022/07/20 03:40:08;;;;;;;25.13;23.57;;;;;;;;;;5096879;28;20554;-68
2022/07/20 03:42:36;;;;;;;24.77;23.30;;;;;;;;;;5096885;28;20472;-70
2022/07/20 03:45:03;;;;;;;25.03;23.43;;;;;;;;;;5096896;28;20412;-68
2022/07/20 03:47:31;;;;;;;24.50;23.00;;;;;;;;;;5096591;28;20408;-68
2022/07/20 03:49:58;;;;;;;24.97;23.43;;;;;;;;;;5096633;28;20494;-68
2022/07/20 03:52:25;;;;;;;24.53;23.03;;;;;;;;;;5096498;28;20831;-68
2022/07/20 03:54:53;;;;;;;24.30;22.90;;;;;;;;;;5096717;28;20416;-68
2022/07/20 03:57:21;;;;;;;26.03;24.40;;;;;;;;;;5096765;28;21325;-68
2022/07/20 03:59:49;;;;;;;25.13;23.53;;;;;;;;;;5096638;28;20986;-68
2022/07/20 04:02:16;;;;;;;24.97;23.30;;;;;;;;;;5096581;28;20404;-68
2022/07/20 04:04:43;;;;;;;24.10;22.50;;;;;;;;;;5096430;28;20430;-68
2022/07/20 04:07:11;;;;;;;25.60;23.60;;;;;;;;;;5096343;28;20814;-68
2022/07/20 04:09:44;;;;;;;23.90;22.37;;;;;;;;;;5096683;28;20433;-68
2022/07/20 04:12:13;;;;;;;24.87;23.37;;;;;;;;;;5096413;28;20456;-68
2022/07/20 04:14:42;;;;;;;24.57;22.80;;;;;;;;;;5095987;28;20460;-68
2022/07/20 04:17:10;;;;;;;24.40;22.97;;;;;;;;;;5096409;28;20753;-67
2022/07/20 04:19:38;;;;;;;24.27;22.77;;;;;;;;;;5096228;28;20412;-68
2022/07/20 04:22:05;;;;;;;25.40;23.80;;;;;;;;;;5096557;28;20421;-68
2022/07/20 04:24:33;;;;;;;24.93;23.20;;;;;;;;;;5095972;28;20455;-68
2022/07/20 04:27:00;;;;;;;23.70;22.30;;;;;;;;;;5096149;28;20483;-68
2022/07/20 04:29:28;;;;;;;23.70;22.20;;;;;;;;;;5096088;28;20410;-68
2022/07/20 04:31:57;;;;;;;24.30;22.70;;;;;;;;;;5096593;28;20763;-68
2022/07/20 04:34:24;;;;;;;24.23;22.83;;;;;;;;;;5096040;28;20425;-68
2022/07/20 04:36:52;;;;;;;24.77;23.17;;;;;;;;;;5095855;28;20415;-68
2022/07/20 04:39:19;;;;;;;24.00;22.50;;;;;;;;;;5095795;28;20810;-68
2022/07/20 04:41:47;;;;;;;23.33;22.03;;;;;;;;;;5095298;28;20447;-68
2022/07/20 04:44:14;;;;;;;24.73;23.23;;;;;;;;;;5096120;28;20496;-68
2022/07/20 04:46:42;;;;;;;25.43;23.87;;;;;;;;;;5096040;28;20440;-67
2022/07/20 04:49:10;;;;;;;24.93;23.07;;;;;;;;;;5095611;28;20437;-68
2022/07/20 04:51:38;;;;;;;24.33;22.87;;;;;;;;;;5095667;28;20457;-68
2022/07/20 04:54:05;;;;;;;24.27;22.87;;;;;;;;;;5095361;28;20553;-68
2022/07/20 04:56:33;;;;;;;25.97;24.37;;;;;;;;;;5095663;28;20405;-68
2022/07/20 04:59:00;;;;;;;25.00;23.43;;;;;;;;;;5095607;28;20406;-69
2022/07/20 05:01:27;;;;;;;24.30;22.50;;;;;;;;;;5095700;28;20404;-68
2022/07/20 05:03:55;;;;;;;25.43;23.83;;;;;;;;;;5095253;28;20436;-68
2022/07/20 05:06:23;;;;;;;24.40;22.80;;;;;;;;;;5095449;28;20405;-68
2022/07/20 05:08:51;;;;;;;24.30;22.90;;;;;;;;;;5095508;28;20440;-68
2022/07/20 05:11:19;;;;;;;24.57;23.03;;;;;;;;;;5095315;28;20463;-68
2022/07/20 05:13:46;;;;;;;24.63;23.13;;;;;;;;;;5095009;28;20986;-68
2022/07/20 05:16:14;;;;;;;24.60;23.10;;;;;;;;;;5095062;28;20437;-68
2022/07/20 05:18:41;;;;;;;24.70;23.30;;;;;;;;;;5095293;28;20412;-68
2022/07/20 05:21:08;;;;;;;24.57;23.07;;;;;;;;;;5095544;28;20437;-68
2022/07/20 05:23:38;;;;;;;25.50;23.90;;;;;;;;;;5094815;28;20453;-68
2022/07/20 05:26:05;;;;;;;25.50;23.87;;;;;;;;;;5095315;28;20449;-68
2022/07/20 05:28:33;;;;;;;25.00;23.10;;;;;;;;;;5095055;28;20437;-68
2022/07/20 05:31:00;;;;;;;25.90;23.90;;;;;;;;;;5094910;28;20486;-68
2022/07/20 05:33:28;;;;;;;24.70;23.20;;;;;;;;;;5094939;28;20490;-67
2022/07/20 05:35:55;;;;;;;25.43;23.93;;;;;;;;;;5094636;28;20887;-68
2022/07/20 05:38:22;;;;;;;25.17;23.60;;;;;;;;;;5094611;28;20813;-67
2022/07/20 05:40:51;;;;;;;25.47;23.63;;;;;;;;;;5094403;28;20867;-69
2022/07/20 05:43:18;;;;;;;25.20;23.80;;;;;;;;;;5094474;28;20423;-68
2022/07/20 05:45:45;;;;;;;25.20;23.70;;;;;;;;;;5094378;28;20914;-69
2022/07/20 05:48:13;;;;;;;25.30;23.60;;;;;;;;;;5094523;28;20441;-68
2022/07/20 05:50:40;;;;;;;24.90;23.30;;;;;;;;;;5094936;28;20418;-68
2022/07/20 05:53:08;;;;;;;25.43;23.90;;;;;;;;;;5093415;28;20784;-68
2022/07/20 05:55:35;;;;;;;26.63;24.77;;;;;;;;;;5094504;28;20485;-68
2022/07/20 05:58:05;;;;;;;24.50;23.00;;;;;;;;;;5094434;28;20436;-68
2022/07/20 06:00:32;;;;;;;24.33;22.83;;;;;;;;;;5094080;28;20457;-68
2022/07/20 06:03:00;;;;;;;25.13;23.50;;;;;;;;;;5093974;28;20441;-68
2022/07/20 06:05:27;;;;;;;24.87;23.27;;;;;;;;;;5093927;28;20447;-69
2022/07/20 06:07:55;;;;;;;25.13;23.43;;;;;;;;;;5094549;28;20435;-68
2022/07/20 06:10:22;;;;;;;25.10;23.40;;;;;;;;;;5093966;28;20436;-68
2022/07/20 06:12:50;;;;;;;25.10;23.40;;;;;;;;;;5093721;28;20541;-68
2022/07/20 06:15:19;;;;;;;24.53;23.03;;;;;;;;;;5093745;28;20403;-68
2022/07/20 06:17:47;;;;;;;24.77;23.13;;;;;;;;;;5093765;28;20436;-68
2022/07/20 06:20:15;;;;;;;25.43;23.83;;;;;;;;;;5093918;28;20437;-68
2022/07/20 06:22:43;;;;;;;28.70;24.63;;;;;;;;;;5093839;28;20819;-68
2022/07/20 06:25:10;;;;;;;24.73;22.90;;;;;;;;;;5093862;28;20803;-68
2022/07/20 06:27:38;;;;;;;26.63;24.53;;;;;;;;;;5093913;28;20409;-68
2022/07/20 06:30:06;;;;;;;24.80;23.20;;;;;;;;;;5093854;28;20433;-68
2022/07/20 06:32:35;;;;;;;24.50;22.93;;;;;;;;;;5093637;28;20433;-68
2022/07/20 06:35:03;;;;;;;25.30;23.70;;;;;;;;;;5093717;28;20440;-67
2022/07/20 06:37:30;;;;;;;25.00;23.30;;;;;;;;;;5093811;28;20424;-68
2022/07/20 06:39:58;;;;;;;24.80;23.30;;;;;;;;;;5093308;28;20483;-68
2022/07/20 06:42:25;;;;;;;24.90;23.20;;;;;;;;;;5093693;28;20472;-68
2022/07/20 06:44:52;;;;;;;25.90;24.20;;;;;;;;;;5093208;28;20407;-68
2022/07/20 06:47:19;;;;;;;25.63;24.03;;;;;;;;;;5093671;28;20416;-68
2022/07/20 06:49:48;;;;;;;24.50;22.93;;;;;;;;;;5093435;28;20411;-68
2022/07/20 06:52:15;;;;;;;26.33;24.20;;;;;;;;;;5093519;28;20408;-68
2022/07/20 06:54:43;;;;;;;26.17;24.33;;;;;;;;;;5093388;28;20483;-68
2022/07/20 06:57:10;;;;;;;24.77;23.17;;;;;;;;;;5093584;28;20412;-68
2022/07/20 06:59:38;;;;;;;24.40;22.77;;;;;;;;;;5093417;28;20437;-68
2022/07/20 07:02:06;;;;;;;24.67;23.17;;;;;;;;;;5093494;28;20480;-68
2022/07/20 07:04:33;;;;;;;25.43;23.70;;;;;;;;;;5093284;28;20469;-68
2022/07/20 07:07:02;;;;;;;24.37;22.87;;;;;;;;;;5093138;28;20759;-68
2022/07/20 07:09:30;;;;;;;24.70;22.90;;;;;;;;;;5092960;28;20444;-69
2022/07/20 07:11:57;;;;;;;24.03;22.33;;;;;;;;;;5093221;28;20441;-68
2022/07/20 07:14:25;;;;;;;25.23;23.63;;;;;;;;;;5093226;28;20487;-67
2022/07/20 07:16:53;;;;;;;24.73;23.03;;;;;;;;;;5093287;28;20490;-68
2022/07/20 07:19:20;;;;;;;25.40;23.70;;;;;;;;;;5092651;28;20443;-68
2022/07/20 07:21:48;;;;;;;25.30;23.50;;;;;;;;;;5093085;28;20735;-68
2022/07/20 07:24:16;;;;;;;25.80;24.20;;;;;;;;;;5093145;28;20420;-68
2022/07/20 07:26:44;;;;;;;26.00;24.40;;;;;;;;;;5093063;28;20404;-68
2022/07/20 07:29:11;;;;;;;24.60;22.80;;;;;;;;;;5093200;28;20437;-68
2022/07/20 07:31:39;;;;;;;25.60;23.90;;;;;;;;;;5093042;28;20422;-68
2022/07/20 07:34:06;;;;;;;25.47;23.87;;;;;;;;;;5092883;28;20451;-68
2022/07/20 07:36:34;;;;;;;25.27;23.67;;;;;;;;;;5093367;28;20437;-68
2022/07/20 07:39:01;;;;;;;25.33;23.20;;;;;;;;;;5092661;28;20918;-68
2022/07/20 07:41:30;;;;;;;25.63;23.90;;;;;;;;;;5093790;28;20464;-68
2022/07/20 07:43:57;;;;;;;24.93;23.43;;;;;;;;;;5093643;28;20403;-68
2022/07/20 07:46:24;;;;;;;25.13;23.63;;;;;;;;;;5092668;28;20411;-68
2022/07/20 07:48:52;;;;;;;26.70;25.00;;;;;;;;;;5092937;28;20410;-68
2022/07/20 07:51:19;;;;;;;25.40;23.70;;;;;;;;;;5092689;28;20970;-68
2022/07/20 07:53:47;;;;;;;27.17;25.33;;;;;;;;;;5091321;28;20557;-68
2022/07/20 07:56:15;;;;;;;26.43;24.37;;;;;;;;;;5092722;28;20411;-68
2022/07/20 07:58:44;;;;;;;26.83;24.83;;;;;;;;;;5092703;28;20433;-67
2022/07/20 08:01:12;;;;;;;26.07;24.30;;;;;;;;;;5092721;28;20441;-67
2022/07/20 08:03:39;;;;;;;26.30;24.67;;;;;;;;;;5092791;28;20461;-69
2022/07/20 08:06:07;;;;;;;26.13;24.43;;;;;;;;;;5092889;28;20412;-68
2022/07/20 08:08:34;;;;;;;25.77;24.07;;;;;;;;;;5092471;28;20422;-68
2022/07/20 08:11:02;;;;;;;26.53;24.67;;;;;;;;;;5092642;28;20452;-68
2022/07/20 08:13:34;;;;;;;24.93;23.43;;;;;;;;;;5092599;28;20469;-67
2022/07/20 08:16:02;;;;;;;25.07;23.23;;;;;;;;;;5094934;28;20464;-68
2022/07/20 08:18:30;;;;;;;24.57;23.07;;;;;;;;;;5096501;28;20516;-70
2022/07/20 08:20:57;;;;;;;25.00;23.13;;;;;;;;;;5096214;28;20456;-70
2022/07/20 08:23:24;;;;;;;25.80;24.10;;;;;;;;;;5096137;28;20835;-70
2022/07/20 08:25:52;;;;;;;25.67;23.80;;;;;;;;;;5096485;28;20963;-70
2022/07/20 08:28:21;;;;;;;25.80;23.90;;;;;;;;;;5096569;28;20512;-70
2022/07/20 08:30:49;;;;;;;25.77;24.00;;;;;;;;;;5096049;28;20472;-70
2022/07/20 08:33:18;;;;;;;26.27;24.50;;;;;;;;;;5096183;28;20406;-70
2022/07/20 08:35:46;;;;;;;26.97;25.17;;;;;;;;;;5095776;28;20926;-70
2022/07/20 08:38:13;;;;;;;26.33;24.73;;;;;;;;;;5097739;28;20411;-75
2022/07/20 08:40:42;;;;;;;26.90;24.93;;;;;;;;;;5095349;28;20916;-69
2022/07/20 08:43:09;;;;;;;26.47;24.57;;;;;;;;;;5095962;28;20486;-69
2022/07/20 08:45:37;;;;;;;26.87;25.20;;;;;;;;;;5095539;28;20502;-70
2022/07/20 08:48:07;;;;;;;27.33;25.43;;;;;;;;;;5095743;28;20446;-70
2022/07/20 08:50:36;;;;;;;27.33;25.33;;;;;;;;;;5096244;28;20486;-72
2022/07/20 08:53:03;;;;;;;26.17;24.53;;;;;;;;;;5087718;28;20419;-70
2022/07/20 08:55:31;;;;;;;26.73;24.87;;;;;;;;;;5096001;28;20455;-70
2022/07/20 08:57:58;;;;;;;26.80;25.10;;;;;;;;;;5095620;28;20410;-70
2022/07/20 09:00:26;;;;;;;26.47;24.80;;;;;;;;;;5095729;28;20437;-70
2022/07/20 09:02:54;;;;;;;27.60;25.50;;;;;;;;;;5095747;28;20411;-70
2022/07/20 09:05:22;;;;;;;27.13;25.40;;;;;;;;;;5095590;28;20415;-70
2022/07/20 09:07:51;;;;;;;26.43;24.50;;;;;;;;;;5095746;28;20437;-70
2022/07/20 09:10:20;;;;;;;26.90;25.40;;;;;;;;;;5095497;28;20414;-70
2022/07/20 09:12:52;;;;;;;27.70;25.90;;;;;;;;;;5095182;28;20412;-70
2022/07/20 09:15:38;;;;;;;27.17;25.57;;;;;;;;;;5095068;28;20506;-70
2022/07/20 09:18:10;;;;;;;27.40;25.70;;;;;;;;;;5095311;28;20418;-69
2022/07/20 09:20:38;;;;;;;27.83;25.93;;;;;;;;;;5095156;28;20444;-70
2022/07/20 09:23:08;;;;;;;27.77;26.07;;;;;;;;;;5095191;28;20428;-70
2022/07/20 09:25:36;;;;;;;28.60;26.80;;;;;;;;;;5094918;28;20444;-69
2022/07/20 09:28:03;;;;;;;27.70;25.60;;;;;;;;;;5094345;28;20411;-70
2022/07/20 09:30:31;;;;;;;28.67;26.87;;;;;;;;;;5094700;28;20411;-70
2022/07/20 09:33:00;;;;;;;27.60;25.87;;;;;;;;;;5094652;28;20882;-70
2022/07/20 09:35:29;;;;;;;29.40;27.50;;;;;;;;;;5094641;28;20458;-70
2022/07/20 09:37:57;;;;;;;29.43;27.20;;;;;;;;;;5095539;28;20416;-70
2022/07/20 09:40:26;;;;;;;28.23;26.33;;;;;;;;;;5094704;28;20462;-70
2022/07/20 09:42:54;;;;;;;28.50;26.60;;;;;;;;;;5094637;28;20412;-70
2022/07/20 09:45:23;;;;;;;28.10;26.00;;;;;;;;;;5094488;28;20438;-70
2022/07/20 09:48:03;;;;;;;29.20;26.97;;;;;;;;;;5094533;28;20482;-70
2022/07/20 09:50:32;;;;;;;29.80;28.00;;;;;;;;;;5094465;28;20444;-70
2022/07/20 09:53:00;;;;;;;29.17;27.20;;;;;;;;;;5094617;28;20408;-70
2022/07/20 09:55:29;;;;;;;27.80;25.70;;;;;;;;;;5093049;28;20484;-70
2022/07/20 09:57:56;;;;;;;29.40;27.30;;;;;;;;;;5094428;28;20448;-70
2022/07/20 10:00:23;;;;;;;28.83;26.80;;;;;;;;;;5094224;28;20420;-69
2022/07/20 10:02:53;;;;;;;29.27;27.27;;;;;;;;;;5093966;28;20444;-70
2022/07/20 10:05:21;;;;;;;29.50;27.50;;;;;;;;;;5093825;28;20919;-69
2022/07/20 10:07:49;;;;;;;30.30;28.20;;;;;;;;;;5094517;28;20431;-70
2022/07/20 10:10:16;;;;;;;30.90;28.77;;;;;;;;;;5094152;28;20889;-70
2022/07/20 10:12:45;;;;;;;31.20;29.30;;;;;;;;;;5094272;28;20414;-70
2022/07/20 10:15:14;;;;;;;30.90;28.60;;;;;;;;;;5094773;28;20470;-76
2022/07/20 10:17:43;;;;;;;31.47;29.17;;;;;;;;;;5094541;28;20415;-70
2022/07/20 10:20:25;;;;;;;31.87;29.57;;;;;;;;;;5094291;28;20457;-70
2022/07/20 10:23:25;;;;;;;32.90;30.40;;;;;;;;;;5093601;28;20457;-71
2022/07/20 10:25:52;;;;;;;33.93;31.23;;;;;;;;;;5094229;28;20768;-70
2022/07/20 10:28:28;;;;;;;32.83;30.63;;;;;;;;;;5094609;28;20415;-71
2022/07/20 10:30:57;;;;;;;31.30;28.87;;;;;;;;;;5094267;28;20428;-70
2022/07/20 10:33:25;;;;;;;31.97;29.73;;;;;;;;;;5094026;28;20571;-70
2022/07/20 10:36:41;;;;;;;35.87;33.20;;;;;;;;;;5093997;28;20587;-70
2022/07/20 10:38:40;;;;;;;33.70;31.37;;;;;;;;;;5093015;28;20457;-70
2022/07/20 10:44:11;;;;;;;35.47;32.90;;;;;;;;;;5093640;28;20503;-70
2022/07/20 10:46:40;;;;;;;35.70;32.93;;;;;;;;;;5083462;28;20427;-70
2022/07/20 10:49:08;;;;;;;35.80;33.03;;;;;;;;;;5093591;28;20445;-69
2022/07/20 10:51:36;;;;;;;35.77;33.47;;;;;;;;;;5093615;28;20432;-70
2022/07/20 10:54:18;;;;;;;37.30;34.73;;;;;;;;;;5093320;28;20818;-70
2022/07/20 10:56:46;;;;;;;35.93;33.60;;;;;;;;;;5093419;28;20437;-70
2022/07/20 10:59:14;;;;;;;35.50;33.00;;;;;;;;;;5093591;28;20783;-70
2022/07/20 11:01:46;;;;;;;37.20;34.40;;;;;;;;;;5091347;28;20432;-70
2022/07/20 11:04:15;;;;;;;39.03;35.90;;;;;;;;;;5085012;28;20428;-71
2022/07/20 11:06:44;;;;;;;38.20;35.50;;;;;;;;;;5093104;28;20445;-76
2022/07/20 11:09:12;;;;;;;41.77;38.67;;;;;;;;;;5095782;28;20539;-76
2022/07/20 11:11:40;;;;;;;41.57;38.40;;;;;;;;;;5096430;28;20443;-78
2022/07/20 11:14:10;;;;;;;38.87;36.27;;;;;;;;;;5095677;28;20443;-79
2022/07/20 11:16:38;;;;;;;36.83;34.23;;;;;;;;;;5095027;28;20453;-77
2022/07/20 11:19:07;;;;;;;37.90;35.20;;;;;;;;;;5093810;28;20952;-76
2022/07/20 11:21:35;;;;;;;37.77;35.17;;;;;;;;;;5093719;28;20792;-76
2022/07/20 11:24:03;;;;;;;37.83;34.80;;;;;;;;;;5093619;28;20954;-75
2022/07/20 11:26:31;;;;;;;38.30;35.60;;;;;;;;;;5093835;28;20490;-79
2022/07/20 11:28:58;;;;;;;36.50;33.83;;;;;;;;;;5093767;28;20422;-68
2022/07/20 11:31:27;;;;;;;37.33;34.77;;;;;;;;;;5092547;28;20453;-69
2022/07/20 11:33:55;;;;;;;37.40;34.70;;;;;;;;;;5092680;28;20419;-68
2022/07/20 11:36:29;;;;;;;38.17;35.07;;;;;;;;;;5092930;28;20455;-74
2022/07/20 11:38:58;;;;;;;39.43;36.73;;;;;;;;;;5092780;28;20483;-68
2022/07/20 11:41:26;;;;;;;37.20;34.60;;;;;;;;;;5092477;28;20506;-70
2022/07/20 11:43:53;;;;;;;37.00;34.50;;;;;;;;;;5092851;28;20408;-70
2022/07/20 11:46:22;;;;;;;35.47;33.10;;;;;;;;;;5092607;28;20412;-72
2022/07/20 11:48:56;;;;;;;35.93;32.80;;;;;;;;;;5092697;28;20489;-72
2022/07/20 11:51:25;;;;;;;36.43;33.90;;;;;;;;;;5095998;28;20408;-72
2022/07/20 11:53:52;;;;;;;36.63;33.83;;;;;;;;;;5097172;28;20412;-75
2022/07/20 11:56:21;;;;;;;37.07;34.57;;;;;;;;;;5097017;28;20455;-77
2022/07/20 11:58:50;;;;;;;36.20;33.33;;;;;;;;;;5097058;28;20428;-81
2022/07/20 12:01:21;;;;;;;35.27;32.77;;;;;;;;;;5097111;28;20415;-81
2022/07/20 12:03:50;;;;;;;37.07;34.20;;;;;;;;;;5078128;28;20408;-77
2022/07/20 12:06:18;;;;;;;36.60;34.20;;;;;;;;;;5077103;28;20458;-76
2022/07/20 12:09:02;;;;;;;38.37;35.70;;;;;;;;;;5076690;28;20412;-74
2022/07/20 12:11:29;;;;;;;36.87;34.57;;;;;;;;;;5076409;28;20412;-76
2022/07/20 12:13:57;;;;;;;34.73;32.30;;;;;;;;;;5077157;28;20409;-75
2022/07/20 12:16:25;;;;;;;35.83;33.10;;;;;;;;;;5077096;28;20533;-76
2022/07/20 12:18:53;;;;;;;37.37;34.63;;;;;;;;;;5077804;28;20439;-76
2022/07/20 12:21:21;;;;;;;37.07;34.27;;;;;;;;;;5076529;28;20404;-76
2022/07/20 12:23:51;;;;;;;35.67;33.17;;;;;;;;;;5076619;28;20416;-69
2022/07/20 12:26:22;;;;;;;35.77;33.27;;;;;;;;;;5075793;28;20421;-70
2022/07/20 12:28:50;;;;;;;34.90;32.60;;;;;;;;;;5076392;28;20434;-69
2022/07/20 12:31:18;;;;;;;37.00;34.60;;;;;;;;;;5075636;28;20416;-69
2022/07/20 12:34:02;;;;;;;36.83;34.33;;;;;;;;;;5075654;28;20413;-69
2022/07/20 12:36:33;;;;;;;37.20;34.50;;;;;;;;;;5075559;28;21055;-73
2022/07/20 12:39:02;;;;;;;36.70;34.27;;;;;;;;;;5075749;28;20450;-70
2022/07/20 12:41:29;;;;;;;36.83;34.20;;;;;;;;;;5075640;28;20828;-69
2022/07/20 12:43:57;;;;;;;38.13;35.33;;;;;;;;;;5075542;28;20995;-69
2022/07/20 12:46:25;;;;;;;37.67;34.97;;;;;;;;;;5075787;28;20442;-70
2022/07/20 12:48:53;;;;;;;38.43;35.57;;;;;;;;;;5075550;28;20449;-70
2022/07/20 12:51:21;;;;;;;38.60;35.57;;;;;;;;;;5075625;28;20434;-70
2022/07/20 12:53:52;;;;;;;37.77;35.10;;;;;;;;;;5075444;28;20409;-70
2022/07/20 12:56:21;;;;;;;38.00;35.20;;;;;;;;;;5075264;28;20509;-70
2022/07/20 12:58:48;;;;;;;38.53;35.80;;;;;;;;;;5075436;28;20496;-70
2022/07/20 13:01:17;;;;;;;38.13;35.63;;;;;;;;;;5074990;28;20437;-69
2022/07/20 13:03:44;;;;;;;38.33;35.57;;;;;;;;;;5095484;28;20456;-69
2022/07/20 13:06:12;;;;;;;37.67;34.83;;;;;;;;;;5095672;28;20438;-70
2022/07/20 13:08:39;;;;;;;36.93;34.20;;;;;;;;;;5096138;28;20437;-69
2022/07/20 13:11:06;;;;;;;37.57;34.83;;;;;;;;;;5095525;28;20412;-69
2022/07/20 13:13:35;;;;;;;37.63;34.83;;;;;;;;;;5095188;28;20415;-69
2022/07/20 13:16:02;;;;;;;38.00;34.90;;;;;;;;;;5094946;28;20482;-69
2022/07/20 13:18:30;;;;;;;38.63;35.67;;;;;;;;;;5095168;28;20416;-70
2022/07/20 13:20:57;;;;;;;38.30;35.57;;;;;;;;;;5095209;28;20437;-70
2022/07/20 13:23:24;;;;;;;38.07;34.80;;;;;;;;;;5095127;28;20396;-69
2022/07/20 13:25:52;;;;;;;37.40;34.77;;;;;;;;;;5094729;28;20438;-70
2022/07/20 13:28:20;;;;;;;38.37;34.90;;;;;;;;;;5094991;28;20431;-70
2022/07/20 13:30:49;;;;;;;38.77;35.37;;;;;;;;;;5094913;28;20474;-71
2022/07/20 13:33:16;;;;;;;37.60;35.07;;;;;;;;;;5094661;28;20457;-71
2022/07/20 13:35:44;;;;;;;38.97;35.97;;;;;;;;;;5094412;28;20802;-70
2022/07/20 13:38:11;;;;;;;37.63;34.93;;;;;;;;;;5094990;28;20471;-70
2022/07/20 13:40:39;;;;;;;38.43;35.90;;;;;;;;;;5094306;28;20554;-70
2022/07/20 13:43:06;;;;;;;38.30;35.63;;;;;;;;;;5094413;28;20444;-70
2022/07/20 13:45:33;;;;;;;37.97;35.30;;;;;;;;;;5094378;28;20444;-70
2022/07/20 13:48:02;;;;;;;38.03;34.90;;;;;;;;;;5094488;28;20801;-69
2022/07/20 13:50:29;;;;;;;37.63;34.60;;;;;;;;;;5094706;28;20417;-70
2022/07/20 13:52:57;;;;;;;38.57;35.67;;;;;;;;;;5094149;28;20441;-70
2022/07/20 13:55:24;;;;;;;37.70;34.97;;;;;;;;;;5094250;28;20970;-75
2022/07/20 13:57:51;;;;;;;39.17;36.17;;;;;;;;;;5094632;28;20470;-71
2022/07/20 14:00:19;;;;;;;39.07;36.13;;;;;;;;;;5090933;28;20440;-71
2022/07/20 14:02:47;;;;;;;38.90;36.10;;;;;;;;;;5074385;28;20731;-71
2022/07/20 14:05:16;;;;;;;37.30;34.90;;;;;;;;;;5073902;28;20421;-71
2022/07/20 14:07:43;;;;;;;37.30;34.70;;;;;;;;;;5073950;28;20406;-71
2022/07/20 14:10:11;;;;;;;38.00;35.40;;;;;;;;;;5074020;28;20422;-71
2022/07/20 14:12:40;;;;;;;38.03;35.20;;;;;;;;;;5073293;28;20418;-72
2022/07/20 14:15:08;;;;;;;37.07;34.37;;;;;;;;;;5074015;28;20458;-71
2022/07/20 14:17:37;;;;;;;37.70;35.00;;;;;;;;;;5073521;28;20416;-72
2022/07/20 14:20:06;;;;;;;37.50;34.67;;;;;;;;;;5073772;28;20482;-71
2022/07/20 14:22:35;;;;;;;36.80;34.20;;;;;;;;;;5073573;28;20407;-72
2022/07/20 14:25:03;;;;;;;38.77;35.87;;;;;;;;;;5073531;28;20418;-76
2022/07/20 14:27:30;;;;;;;38.87;36.03;;;;;;;;;;5073927;28;20460;-72